Time;durP1;ratioP1;P1;durP2;ratioP2;P2;SDS_P1;SDS_P2;PMS_P1;PMS_P2;Temp;Humidity;BMP_temperature;BMP_pressure;BME280_temperature;BME280_humidity;BME280_pressure;Samples;Min_cycle;Max_cycle;Signal;HPM_P1;HPM_P2
2022/09/06 00:00:42;;;;;;;4.15;0.80;;;16.20;65.00;;;;;;4120168;28;20030;-82
2022/09/06 00:02:43;;;;;;;4.95;0.82;;;16.20;65.10;;;;;;4121394;28;20566;-85
2022/09/06 00:04:44;;;;;;;5.05;0.80;;;16.20;65.10;;;;;;4121511;28;20038;-83
2022/09/06 00:06:45;;;;;;;6.13;0.95;;;16.20;65.00;;;;;;4119694;28;20034;-82
2022/09/06 00:08:47;;;;;;;3.30;0.70;;;16.20;64.90;;;;;;4120911;28;20670;-83
2022/09/06 00:10:55;;;;;;;4.82;0.75;;;16.20;65.50;;;;;;4122705;28;20027;-83
2022/09/06 00:13:00;;;;;;;5.70;1.73;;;16.20;65.10;;;;;;4120571;28;20035;-84
2022/09/06 00:15:01;;;;;;;6.38;1.10;;;16.20;65.40;;;;;;4118984;28;20040;-84
2022/09/06 00:17:01;;;;;;;5.88;0.85;;;16.20;65.70;;;;;;4118860;28;20029;-84
2022/09/06 00:19:02;;;;;;;2.70;0.88;;;16.20;65.80;;;;;;4131628;28;20047;-84
2022/09/06 00:21:11;;;;;;;4.15;1.00;;;16.20;65.50;;;;;;4123277;28;20412;-84
2022/09/06 00:23:12;;;;;;;4.07;0.90;;;16.20;65.40;;;;;;4120409;28;20042;-84
2022/09/06 00:25:13;;;;;;;7.88;1.13;;;16.20;65.30;;;;;;4120128;28;20041;-84
2022/09/06 00:27:14;;;;;;;3.70;0.93;;;16.20;65.20;;;;;;4119207;28;20081;-84
2022/09/06 00:29:15;;;;;;;5.70;0.80;;;16.20;65.70;;;;;;4125010;28;20033;-84
2022/09/06 00:31:26;;;;;;;4.45;0.82;;;16.20;66.20;;;;;;4119549;28;20134;-84
2022/09/06 00:33:26;;;;;;;9.88;1.77;;;16.20;66.20;;;;;;4117996;28;20054;-84
2022/09/06 00:35:28;;;;;;;10.25;1.20;;;16.20;65.80;;;;;;4128976;28;20050;-84
2022/09/06 00:37:29;;;;;;;1.75;0.50;;;16.20;65.70;;;;;;4131251;28;20090;-84
2022/09/06 00:39:29;;;;;;;4.13;0.98;;;16.20;65.70;;;;;;4134853;28;20088;-85
2022/09/06 00:41:30;;;;;;;5.55;0.90;;;16.20;65.70;;;;;;4117854;28;20763;-85
2022/09/06 00:43:31;;;;;;;2.28;0.70;;;16.20;65.80;;;;;;4120168;28;20759;-84
2022/09/06 00:45:33;;;;;;;6.10;0.85;;;16.20;65.80;;;;;;4126433;28;20038;-84
2022/09/06 00:47:35;;;;;;;3.83;0.90;;;16.20;65.70;;;;;;4129844;28;20110;-84
2022/09/06 00:49:45;;;;;;;7.07;1.30;;;16.30;65.60;;;;;;4127669;28;20081;-83
2022/09/06 00:51:46;;;;;;;4.55;0.98;;;16.20;65.80;;;;;;4127677;28;20124;-85
2022/09/06 00:53:47;;;;;;;7.82;0.80;;;16.20;65.80;;;;;;4125938;28;20030;-84
2022/09/06 00:55:48;;;;;;;4.38;1.00;;;16.10;66.70;;;;;;4127699;28;20026;-84
2022/09/06 00:57:52;;;;;;;5.40;1.02;;;16.10;66.30;;;;;;4125181;28;20129;-85
2022/09/06 00:59:54;;;;;;;5.97;1.10;;;16.20;66.60;;;;;;4124859;28;20035;-84
2022/09/06 01:01:55;;;;;;;11.57;1.20;;;16.10;66.20;;;;;;4126670;28;20055;-85
2022/09/06 01:03:56;;;;;;;6.78;1.33;;;16.20;66.30;;;;;;4139965;28;20532;-85
2022/09/06 01:06:23;;;;;;;5.57;1.10;;;16.20;66.60;;;;;;4121336;28;20018;-86
2022/09/06 01:08:54;;;;;;;4.70;0.80;;;16.10;66.70;;;;;;4125940;28;20679;-86
2022/09/06 01:11:14;;;;;;;3.58;0.80;;;16.20;66.50;;;;;;4123921;28;20049;-85
2022/09/06 01:13:24;;;;;;;6.20;0.98;;;16.10;66.50;;;;;;4120958;28;20030;-85
2022/09/06 01:15:55;;;;;;;10.07;1.40;;;16.20;66.20;;;;;;4120908;28;20026;-85
2022/09/06 01:17:59;;;;;;;6.00;1.42;;;16.10;66.00;;;;;;4136022;28;20034;-86
2022/09/06 01:20:25;;;;;;;2.72;0.70;;;16.20;65.80;;;;;;4118232;28;20034;-84
2022/09/06 01:22:35;;;;;;;5.78;1.13;;;16.20;65.80;;;;;;4119103;28;20034;-85
2022/09/06 01:25:00;;;;;;;5.18;1.08;;;16.20;65.50;;;;;;4124830;28;20498;-86
2022/09/06 01:27:32;;;;;;;6.28;1.08;;;16.20;65.40;;;;;;4120659;28;20106;-85
2022/09/06 01:29:44;;;;;;;3.40;0.80;;;16.20;65.30;;;;;;4116640;28;20056;-84
2022/09/06 01:31:51;;;;;;;4.53;1.10;;;16.10;65.30;;;;;;4112298;28;20113;-85
2022/09/06 01:34:06;;;;;;;15.10;1.25;;;16.10;65.10;;;;;;4121552;28;20117;-85
2022/09/06 01:36:12;;;;;;;5.55;0.93;;;16.10;65.00;;;;;;4125670;28;20042;-85
2022/09/06 01:38:14;;;;;;;8.10;0.93;;;16.10;65.00;;;;;;4108695;28;20024;-86
2022/09/06 01:40:15;;;;;;;5.78;0.73;;;16.10;64.70;;;;;;4134794;28;20034;-84
2022/09/06 01:42:24;;;;;;;4.35;0.95;;;16.10;64.80;;;;;;4124481;28;20088;-85
2022/09/06 01:44:28;;;;;;;5.97;0.98;;;16.10;64.70;;;;;;4125442;28;20030;-85
2022/09/06 01:46:43;;;;;;;3.83;0.90;;;16.00;64.70;;;;;;4121695;28;20034;-84
2022/09/06 01:49:01;;;;;;;2.42;0.82;;;16.10;64.50;;;;;;4122007;28;20114;-85
2022/09/06 01:51:15;;;;;;;7.35;1.25;;;16.10;64.30;;;;;;4124009;28;20217;-86
2022/09/06 01:53:34;;;;;;;;;;;16.10;64.30;;;;;;4135004;28;20037;-86
2022/09/06 01:55:53;;;;;;;4.25;1.00;;;16.10;64.30;;;;;;4120266;28;19988;-87
2022/09/06 01:58:09;;;;;;;4.35;0.82;;;16.10;64.00;;;;;;4121202;28;20026;-83
2022/09/06 02:00:19;;;;;;;6.65;1.05;;;16.10;63.90;;;;;;4118432;28;20035;-85
2022/09/06 02:02:34;;;;;;;3.35;0.60;;;16.10;63.70;;;;;;4119549;28;20026;-85
2022/09/06 02:04:43;;;;;;;2.65;0.70;;;16.10;63.70;;;;;;4119475;28;20034;-84
2022/09/06 02:06:53;;;;;;;11.23;1.52;;;16.10;63.50;;;;;;4119884;28;20031;-85
2022/09/06 02:09:03;;;;;;;7.75;0.98;;;16.10;63.40;;;;;;4121182;28;20122;-85
2022/09/06 02:11:07;;;;;;;7.38;1.42;;;16.20;63.40;;;;;;4123652;28;20050;-84
2022/09/06 02:13:08;;;;;;;;;;;16.10;63.30;;;;;;4120975;28;20056;-86
2022/09/06 02:15:19;;;;;;;6.80;0.88;;;16.10;63.20;;;;;;4123117;28;19910;-85
2022/09/06 02:17:25;;;;;;;7.90;1.10;;;16.10;63.10;;;;;;4118456;28;20029;-85
2022/09/06 02:19:30;;;;;;;9.70;1.55;;;16.20;63.10;;;;;;4121055;28;20036;-86
2022/09/06 02:21:35;;;;;;;4.55;1.10;;;16.20;63.20;;;;;;4118438;28;20041;-85
2022/09/06 02:23:40;;;;;;;10.80;1.35;;;16.20;63.00;;;;;;4115537;28;20081;-84
2022/09/06 02:25:53;;;;;;;5.10;1.10;;;16.20;63.10;;;;;;4120553;28;20600;-85
2022/09/06 02:27:54;;;;;;;4.07;1.00;;;16.10;62.90;;;;;;4120574;28;20031;-86
2022/09/06 02:29:55;;;;;;;3.03;0.80;;;16.10;63.00;;;;;;4117004;28;20058;-86
2022/09/06 02:32:18;;;;;;;4.82;0.93;;;16.10;62.80;;;;;;4124808;28;20063;-85
2022/09/06 02:34:19;;;;;;;4.55;1.00;;;16.10;62.90;;;;;;4117587;28;20142;-85
2022/09/06 02:36:20;;;;;;;3.60;0.80;;;16.10;62.90;;;;;;4120329;28;20437;-85
2022/09/06 02:38:23;;;;;;;6.97;1.38;;;16.20;62.90;;;;;;4121585;28;20026;-85
2022/09/06 02:40:24;;;;;;;8.00;0.93;;;16.20;62.80;;;;;;4115392;28;20092;-84
2022/09/06 02:42:25;;;;;;;4.75;0.85;;;16.10;62.80;;;;;;4121581;28;20121;-85
2022/09/06 02:44:26;;;;;;;9.07;1.30;;;16.20;62.70;;;;;;4123262;28;20050;-85
2022/09/06 02:46:27;;;;;;;4.40;1.05;;;16.10;62.60;;;;;;4120007;28;20053;-85
2022/09/06 02:48:28;;;;;;;2.83;0.80;;;16.10;62.60;;;;;;4119854;28;20030;-86
2022/09/06 02:50:28;;;;;;;7.25;1.13;;;16.10;62.60;;;;;;4134667;28;20030;-85
2022/09/06 02:52:29;;;;;;;7.93;0.80;;;16.10;62.60;;;;;;4119447;28;20022;-87
2022/09/06 02:54:31;;;;;;;7.10;1.05;;;16.10;62.50;;;;;;4122055;28;20039;-85
2022/09/06 02:56:33;;;;;;;11.23;0.90;;;16.10;62.50;;;;;;4123069;28;20688;-86
2022/09/06 02:58:34;;;;;;;6.20;1.13;;;16.10;62.40;;;;;;4121613;28;20034;-86
2022/09/06 03:00:36;;;;;;;3.97;0.90;;;16.10;62.40;;;;;;4121567;28;20106;-84
2022/09/06 03:02:36;;;;;;;6.43;1.15;;;16.10;62.40;;;;;;4122502;28;20046;-86
2022/09/06 03:04:37;;;;;;;4.18;1.15;;;16.10;62.40;;;;;;4119883;28;20202;-86
2022/09/06 03:06:38;;;;;;;4.93;0.70;;;16.10;62.40;;;;;;4119951;28;20034;-85
2022/09/06 03:08:38;;;;;;;8.77;1.33;;;16.10;62.30;;;;;;4119227;28;20039;-85
2022/09/06 03:10:39;;;;;;;10.40;1.10;;;16.10;62.30;;;;;;4122930;28;20109;-84
2022/09/06 03:12:42;;;;;;;4.57;1.30;;;16.10;62.30;;;;;;4132438;28;20093;-85
2022/09/06 03:14:42;;;;;;;5.72;0.90;;;16.10;62.30;;;;;;4124140;28;20112;-85
2022/09/06 03:16:43;;;;;;;5.78;1.00;;;16.10;62.20;;;;;;4120726;28;20027;-85
2022/09/06 03:18:44;;;;;;;3.08;0.80;;;16.10;62.20;;;;;;4125511;28;20022;-86
2022/09/06 03:20:47;;;;;;;4.25;0.85;;;16.10;62.10;;;;;;4126604;28;20037;-86
2022/09/06 03:22:48;;;;;;;4.18;0.93;;;16.10;62.10;;;;;;4132550;28;20059;-86
2022/09/06 03:24:48;;;;;;;2.90;0.80;;;16.10;62.10;;;;;;4119489;28;20065;-85
2022/09/06 03:26:49;;;;;;;4.80;1.17;;;16.10;62.00;;;;;;4115591;28;20045;-85
2022/09/06 03:28:49;;;;;;;5.70;1.08;;;16.10;62.00;;;;;;4117961;28;20041;-85
2022/09/06 03:30:51;;;;;;;4.00;0.90;;;16.00;62.00;;;;;;4134354;28;20034;-85
2022/09/06 03:32:52;;;;;;;3.47;1.00;;;16.00;62.00;;;;;;4123549;28;20018;-86
2022/09/06 03:34:53;;;;;;;8.13;1.27;;;16.00;62.30;;;;;;4121224;28;20022;-85
2022/09/06 03:36:54;;;;;;;5.70;0.90;;;16.00;62.30;;;;;;4120930;28;20050;-85
2022/09/06 03:38:54;;;;;;;5.97;1.10;;;16.00;62.50;;;;;;4115569;28;20041;-86
2022/09/06 03:40:55;;;;;;;7.75;1.10;;;16.00;62.40;;;;;;4114266;28;20031;-86
2022/09/06 03:42:56;;;;;;;4.30;1.13;;;16.00;62.40;;;;;;4117894;28;20096;-84
2022/09/06 03:44:57;;;;;;;7.13;1.20;;;16.00;62.50;;;;;;4123865;28;20031;-83
2022/09/06 03:46:57;;;;;;;7.55;1.17;;;16.00;62.50;;;;;;4122781;28;20450;-85
2022/09/06 03:48:58;;;;;;;7.30;1.15;;;16.00;62.50;;;;;;4136536;28;20052;-83
2022/09/06 03:50:59;;;;;;;2.22;0.80;;;16.00;62.50;;;;;;4140904;28;20101;-84
2022/09/06 03:53:00;;;;;;;4.65;1.05;;;16.00;62.40;;;;;;4125965;28;20498;-84
2022/09/06 03:55:02;;;;;;;5.10;1.00;;;15.90;62.50;;;;;;4111429;28;20022;-84
2022/09/06 03:57:03;;;;;;;5.88;1.20;;;15.90;62.30;;;;;;4137783;28;20117;-83
2022/09/06 03:59:03;;;;;;;5.20;0.80;;;16.00;62.30;;;;;;4110835;28;20104;-83
2022/09/06 04:01:07;;;;;;;3.80;0.80;;;15.90;62.00;;;;;;4132162;28;20025;-83
2022/09/06 04:03:08;;;;;;;4.18;0.70;;;15.90;61.90;;;;;;4123020;28;20178;-83
2022/09/06 04:05:09;;;;;;;3.58;1.00;;;16.00;61.80;;;;;;4124304;28;20030;-84
2022/09/06 04:07:09;;;;;;;6.07;0.70;;;15.90;61.80;;;;;;4120139;28;20406;-84
2022/09/06 04:09:10;;;;;;;3.15;0.85;;;15.90;61.90;;;;;;4120421;28;20030;-84
2022/09/06 04:11:10;;;;;;;3.88;0.82;;;15.90;61.80;;;;;;4119554;28;20069;-83
2022/09/06 04:13:11;;;;;;;3.55;0.90;;;15.90;61.70;;;;;;4127274;28;20050;-84
2022/09/06 04:15:12;;;;;;;4.38;1.00;;;15.90;61.70;;;;;;4124397;28;20227;-84
2022/09/06 04:17:13;;;;;;;3.70;0.80;;;15.90;61.60;;;;;;4120282;28;20073;-82
2022/09/06 04:19:14;;;;;;;7.68;0.90;;;16.00;61.60;;;;;;4123069;28;20062;-83
2022/09/06 04:21:14;;;;;;;6.47;1.00;;;15.90;61.40;;;;;;4136368;28;20033;-83
2022/09/06 04:23:16;;;;;;;5.68;0.85;;;16.00;61.50;;;;;;4122981;28;20034;-84
2022/09/06 04:25:17;;;;;;;4.25;1.10;;;16.00;61.50;;;;;;4124805;28;20027;-84
2022/09/06 04:27:17;;;;;;;3.05;0.88;;;15.90;61.60;;;;;;4141869;28;20034;-84
2022/09/06 04:29:18;;;;;;;5.35;1.30;;;15.90;61.60;;;;;;4127934;28;20040;-85
2022/09/06 04:31:19;;;;;;;2.83;0.80;;;15.90;61.80;;;;;;4129051;28;20026;-83
2022/09/06 04:33:20;;;;;;;4.50;1.13;;;15.90;61.80;;;;;;4129043;28;20422;-85
2022/09/06 04:35:21;;;;;;;5.72;0.93;;;15.90;61.90;;;;;;4127221;28;20022;-83
2022/09/06 04:37:22;;;;;;;5.53;1.30;;;15.90;62.00;;;;;;4123085;28;20034;-83
2022/09/06 04:39:23;;;;;;;14.88;1.00;;;15.90;61.90;;;;;;4127235;28;20034;-84
2022/09/06 04:41:24;;;;;;;6.78;1.02;;;15.80;62.10;;;;;;4122083;28;20169;-85
2022/09/06 04:43:24;;;;;;;5.15;1.38;;;15.80;61.90;;;;;;4120999;28;20080;-84
2022/09/06 04:45:25;;;;;;;3.50;0.90;;;15.90;61.90;;;;;;4139112;28;20445;-83
2022/09/06 04:47:26;;;;;;;9.30;1.33;;;15.90;61.90;;;;;;4122916;28;20039;-83
2022/09/06 04:49:26;;;;;;;5.65;1.00;;;15.90;61.80;;;;;;4121520;28;20889;-83
2022/09/06 04:51:27;;;;;;;3.83;1.10;;;15.90;61.90;;;;;;4120917;28;20501;-83
2022/09/06 04:53:28;;;;;;;4.95;1.20;;;15.90;61.80;;;;;;4138961;28;20576;-85
2022/09/06 04:55:30;;;;;;;5.47;0.82;;;15.80;61.70;;;;;;4125976;28;20030;-84
2022/09/06 04:57:30;;;;;;;2.85;0.77;;;15.90;61.80;;;;;;4126605;28;20019;-84
2022/09/06 04:59:31;;;;;;;8.15;1.13;;;15.90;61.70;;;;;;4125523;28;20138;-84
2022/09/06 05:01:32;;;;;;;6.70;0.77;;;15.90;61.70;;;;;;4120675;28;20042;-83
2022/09/06 05:03:32;;;;;;;3.50;0.95;;;15.90;61.60;;;;;;4117275;28;20399;-84
2022/09/06 05:05:33;;;;;;;5.18;1.08;;;15.90;61.60;;;;;;4113783;28;20840;-84
2022/09/06 05:07:34;;;;;;;5.63;1.33;;;15.80;61.50;;;;;;4120869;28;21430;-84
2022/09/06 05:09:35;;;;;;;5.85;1.00;;;15.90;61.60;;;;;;4122129;28;21584;-84
2022/09/06 05:11:36;;;;;;;5.70;1.23;;;15.90;61.50;;;;;;4126133;28;20081;-83
2022/09/06 05:13:37;;;;;;;8.27;1.13;;;15.90;61.60;;;;;;4124724;28;20045;-85
2022/09/06 05:15:38;;;;;;;5.40;1.15;;;15.90;61.50;;;;;;4128107;28;20050;-84
2022/09/06 05:17:38;;;;;;;3.78;1.00;;;15.90;61.50;;;;;;4119974;28;20493;-83
2022/09/06 05:19:40;;;;;;;5.40;0.70;;;15.90;61.60;;;;;;4125975;28;20049;-84
2022/09/06 05:21:41;;;;;;;5.43;1.17;;;15.90;61.60;;;;;;4123543;28;20106;-85
2022/09/06 05:23:41;;;;;;;6.95;1.10;;;15.90;61.70;;;;;;4138367;28;20032;-84
2022/09/06 05:25:42;;;;;;;2.33;1.13;;;15.90;61.90;;;;;;4129220;28;20022;-84
2022/09/06 05:27:43;;;;;;;8.23;1.10;;;15.90;61.90;;;;;;4142165;28;20025;-84
2022/09/06 05:29:43;;;;;;;4.15;0.70;;;15.90;62.00;;;;;;4128265;28;20044;-84
2022/09/06 05:31:44;;;;;;;5.72;0.95;;;15.90;62.10;;;;;;4125801;28;20034;-85
2022/09/06 05:33:45;;;;;;;7.05;1.20;;;15.90;62.10;;;;;;4128149;28;20030;-85
2022/09/06 05:35:47;;;;;;;3.08;0.85;;;15.90;62.20;;;;;;4125710;28;20058;-85
2022/09/06 05:37:48;;;;;;;3.38;0.90;;;15.90;62.20;;;;;;4126047;28;20033;-83
2022/09/06 05:39:48;;;;;;;8.30;1.13;;;16.00;62.40;;;;;;4123413;28;20026;-84
2022/09/06 05:41:49;;;;;;;2.83;0.80;;;15.90;62.40;;;;;;4126131;28;20457;-84
2022/09/06 05:43:50;;;;;;;5.35;0.80;;;15.90;62.40;;;;;;4126235;28;20038;-85
2022/09/06 05:45:50;;;;;;;3.67;1.02;;;15.90;62.30;;;;;;4126915;28;20027;-83
2022/09/06 05:47:51;;;;;;;3.85;0.90;;;15.90;62.20;;;;;;4123782;28;20030;-85
2022/09/06 05:49:53;;;;;;;5.53;1.60;;;16.00;62.10;;;;;;4127728;28;20018;-84
2022/09/06 05:51:53;;;;;;;3.55;0.82;;;16.00;62.00;;;;;;4122461;28;20027;-84
2022/09/06 05:53:54;;;;;;;5.78;1.00;;;16.00;61.90;;;;;;4140095;28;20034;-85
2022/09/06 05:55:55;;;;;;;4.35;1.20;;;16.00;61.80;;;;;;4134031;28;20026;-84
2022/09/06 05:57:55;;;;;;;3.67;1.20;;;16.00;61.80;;;;;;4129470;28;20503;-84
2022/09/06 05:59:56;;;;;;;7.00;1.40;;;16.00;61.80;;;;;;4130795;28;20038;-85
2022/09/06 06:01:57;;;;;;;7.15;1.48;;;16.00;61.70;;;;;;4141931;28;20025;-86
2022/09/06 06:04:00;;;;;;;6.43;0.93;;;16.00;61.70;;;;;;4129749;28;20030;-84
2022/09/06 06:06:01;;;;;;;5.65;1.25;;;15.90;61.60;;;;;;4132068;28;20049;-84
2022/09/06 06:08:02;;;;;;;6.93;1.13;;;16.00;61.80;;;;;;4129153;28;20031;-84
2022/09/06 06:10:03;;;;;;;13.02;1.10;;;16.00;61.90;;;;;;4129954;28;20084;-81
2022/09/06 06:12:04;;;;;;;3.17;0.90;;;16.00;61.90;;;;;;4129072;28;20106;-83
2022/09/06 06:14:05;;;;;;;5.60;1.60;;;16.00;61.90;;;;;;4127838;28;20022;-83
2022/09/06 06:16:07;;;;;;;4.28;1.02;;;16.00;62.70;;;;;;4135371;28;20109;-83
2022/09/06 06:18:08;;;;;;;5.07;1.65;;;16.00;61.90;;;;;;4131793;28;20035;-82
2022/09/06 06:20:09;;;;;;;9.18;1.23;;;16.00;61.90;;;;;;4128716;28;20494;-84
2022/09/06 06:22:10;;;;;;;3.60;1.00;;;16.00;62.00;;;;;;4126493;28;20050;-84
2022/09/06 06:24:10;;;;;;;4.70;1.02;;;16.00;62.00;;;;;;4122587;28;20038;-83
2022/09/06 06:26:12;;;;;;;4.93;1.00;;;16.00;62.00;;;;;;4138249;28;20046;-84
2022/09/06 06:28:13;;;;;;;3.72;1.15;;;16.00;61.90;;;;;;4126497;28;20274;-84
2022/09/06 06:30:14;;;;;;;9.77;1.48;;;16.00;61.90;;;;;;4125705;28;20030;-83
2022/09/06 06:32:14;;;;;;;4.32;1.17;;;15.90;61.80;;;;;;4124755;28;20029;-83
2022/09/06 06:34:17;;;;;;;4.18;1.10;;;15.90;61.80;;;;;;4124878;28;20126;-84
2022/09/06 06:36:22;;;;;;;4.88;1.23;;;15.90;61.70;;;;;;4125345;28;20033;-84
2022/09/06 06:38:23;;;;;;;8.10;1.10;;;15.90;61.60;;;;;;4125717;28;20074;-83
2022/09/06 06:40:23;;;;;;;5.07;0.80;;;15.90;61.60;;;;;;4124880;28;20141;-84
2022/09/06 06:42:24;;;;;;;4.53;0.82;;;15.90;61.80;;;;;;4122952;28;20029;-83
2022/09/06 06:44:27;;;;;;;3.35;0.85;;;15.90;61.80;;;;;;4127116;28;20058;-83
2022/09/06 06:46:31;;;;;;;3.60;1.15;;;15.90;61.80;;;;;;4123594;28;20031;-83
2022/09/06 06:48:32;;;;;;;4.82;1.35;;;15.90;61.90;;;;;;4110114;28;20050;-83
2022/09/06 06:50:32;;;;;;;2.20;0.88;;;15.90;61.80;;;;;;4137733;28;20053;-83
2022/09/06 06:52:33;;;;;;;5.10;1.33;;;16.00;61.90;;;;;;4129827;28;20029;-82
2022/09/06 06:54:36;;;;;;;8.30;1.25;;;16.00;61.80;;;;;;4142313;28;20033;-83
2022/09/06 06:56:39;;;;;;;3.38;1.20;;;16.00;61.80;;;;;;4123265;28;20033;-82
2022/09/06 06:58:40;;;;;;;3.83;1.20;;;16.00;61.70;;;;;;4110391;28;20553;-83
2022/09/06 07:00:42;;;;;;;9.52;1.88;;;16.00;61.60;;;;;;4122910;28;20026;-83
2022/09/06 07:02:42;;;;;;;3.83;1.08;;;16.00;61.40;;;;;;4129759;28;20353;-82
2022/09/06 07:04:43;;;;;;;4.05;1.10;;;16.00;61.40;;;;;;4123608;28;20035;-83
2022/09/06 07:06:52;;;;;;;3.92;1.00;;;16.10;61.50;;;;;;4126122;28;20259;-83
2022/09/06 07:08:54;;;;;;;8.13;1.58;;;16.10;61.50;;;;;;4136188;28;20140;-83
2022/09/06 07:10:55;;;;;;;4.78;0.98;;;16.10;61.20;;;;;;4121077;28;20031;-83
2022/09/06 07:12:56;;;;;;;9.90;1.00;;;16.10;60.90;;;;;;4124697;28;20037;-83
2022/09/06 07:14:57;;;;;;;4.53;1.08;;;16.10;60.80;;;;;;4117775;28;20399;-83
2022/09/06 07:16:58;;;;;;;3.67;1.08;;;16.10;60.60;;;;;;4125014;28;20033;-83
2022/09/06 07:18:59;;;;;;;5.82;1.33;;;16.20;60.60;;;;;;4123535;28;20026;-83
2022/09/06 07:20:59;;;;;;;6.13;1.20;;;16.20;60.40;;;;;;4124129;28;20547;-83
2022/09/06 07:23:04;;;;;;;2.08;0.82;;;16.20;61.00;;;;;;4122698;28;20450;-84
2022/09/06 07:25:07;;;;;;;10.80;1.30;;;16.30;60.30;;;;;;4127465;28;20018;-83
2022/09/06 07:27:08;;;;;;;5.07;1.35;;;16.30;60.40;;;;;;4125005;28;20038;-84
2022/09/06 07:29:08;;;;;;;5.93;1.05;;;16.40;60.50;;;;;;4124350;28;20030;-83
2022/09/06 07:31:09;;;;;;;5.32;1.10;;;16.40;60.40;;;;;;4128619;28;20395;-83
2022/09/06 07:33:10;;;;;;;4.75;1.00;;;16.50;60.30;;;;;;4122362;28;20038;-82
2022/09/06 07:35:12;;;;;;;5.53;1.10;;;16.50;60.00;;;;;;4123924;28;20031;-83
2022/09/06 07:37:13;;;;;;;10.20;1.58;;;16.60;59.80;;;;;;4128577;28;20049;-83
2022/09/06 07:39:14;;;;;;;4.38;1.10;;;16.60;59.80;;;;;;4139398;28;20025;-83
2022/09/06 07:41:18;;;;;;;2.72;0.88;;;16.60;59.70;;;;;;4129313;28;20156;-84
2022/09/06 07:43:19;;;;;;;4.72;0.98;;;16.70;59.60;;;;;;4140491;28;20442;-82
2022/09/06 07:45:20;;;;;;;3.05;0.68;;;16.70;59.60;;;;;;4141539;28;20065;-82
2022/09/06 07:47:20;;;;;;;5.63;1.20;;;16.70;59.50;;;;;;4145355;28;20046;-83
2022/09/06 07:49:21;;;;;;;7.07;1.33;;;16.70;59.40;;;;;;4131485;28;20026;-84
2022/09/06 07:51:22;;;;;;;4.25;1.00;;;16.70;59.40;;;;;;4130267;28;20444;-83
2022/09/06 07:53:23;;;;;;;6.28;1.13;;;16.60;59.30;;;;;;4125578;28;20026;-83
2022/09/06 07:55:24;;;;;;;7.32;1.10;;;16.60;59.30;;;;;;4123457;28;20027;-83
2022/09/06 07:57:25;;;;;;;5.35;1.05;;;16.60;59.60;;;;;;4135980;28;20387;-82
2022/09/06 07:59:26;;;;;;;7.72;1.88;;;16.60;59.70;;;;;;4125628;28;20166;-83
2022/09/06 08:01:33;;;;;;;5.43;1.23;;;16.50;60.00;;;;;;4125375;28;20034;-83
2022/09/06 08:03:33;;;;;;;7.65;1.45;;;16.50;60.00;;;;;;4122688;28;20031;-84
2022/09/06 08:05:34;;;;;;;10.35;1.27;;;16.60;60.00;;;;;;4126058;28;20022;-83
2022/09/06 08:07:34;;;;;;;6.65;1.20;;;16.60;60.00;;;;;;4128783;28;20453;-83
2022/09/06 08:09:35;;;;;;;4.60;0.93;;;16.60;59.90;;;;;;4121180;28;20057;-84
2022/09/06 08:11:37;;;;;;;3.63;0.93;;;16.60;59.70;;;;;;4124600;28;20034;-83
2022/09/06 08:13:38;;;;;;;9.75;1.10;;;16.70;59.80;;;;;;4130808;28;20421;-83
2022/09/06 08:15:38;;;;;;;7.35;0.95;;;16.70;59.80;;;;;;4121022;28;20031;-83
2022/09/06 08:17:39;;;;;;;6.53;1.02;;;16.70;59.70;;;;;;4126992;28;20398;-83
2022/09/06 08:19:40;;;;;;;8.63;1.00;;;16.60;59.80;;;;;;4126571;28;20478;-83
2022/09/06 08:21:40;;;;;;;4.05;0.85;;;16.70;59.80;;;;;;4121537;28;20439;-83
2022/09/06 08:23:49;;;;;;;7.63;1.67;;;16.70;59.80;;;;;;4121080;28;20034;-83
2022/09/06 08:25:57;;;;;;;4.78;1.00;;;16.70;59.60;;;;;;4127544;28;20511;-84
2022/09/06 08:27:58;;;;;;;4.97;1.20;;;16.70;59.50;;;;;;4122617;28;20076;-83
2022/09/06 08:29:58;;;;;;;6.22;1.20;;;16.70;59.50;;;;;;4121548;28;20031;-84
2022/09/06 08:31:59;;;;;;;6.28;1.10;;;16.80;59.60;;;;;;4141285;28;20018;-84
2022/09/06 08:34:00;;;;;;;10.57;1.10;;;16.80;59.50;;;;;;4123647;28;20058;-84
2022/09/06 08:36:01;;;;;;;4.60;1.10;;;16.80;59.40;;;;;;4128795;28;20085;-83
2022/09/06 08:38:01;;;;;;;8.25;1.13;;;16.80;59.30;;;;;;4127140;28;20050;-84
2022/09/06 08:40:02;;;;;;;7.50;1.70;;;16.80;59.30;;;;;;4124076;28;20553;-84
2022/09/06 08:42:05;;;;;;;4.30;1.38;;;16.90;59.10;;;;;;4123340;28;20090;-83
2022/09/06 08:44:25;;;;;;;6.63;1.35;;;16.80;58.90;;;;;;4130278;28;20080;-83
2022/09/06 08:47:12;;;;;;;5.63;1.20;;;16.80;58.80;;;;;;4126287;28;20030;-85
2022/09/06 08:49:12;;;;;;;4.35;0.90;;;16.80;58.80;;;;;;4126520;28;20105;-85
2022/09/06 08:51:33;;;;;;;6.15;1.00;;;16.90;58.90;;;;;;4128175;28;20089;-84
2022/09/06 08:53:40;;;;;;;12.50;1.05;;;16.90;59.00;;;;;;4136003;28;20049;-84
2022/09/06 08:55:50;;;;;;;9.73;1.27;;;17.00;59.20;;;;;;4129498;28;20099;-84
2022/09/06 08:58:10;;;;;;;3.15;0.88;;;17.00;59.30;;;;;;4130968;28;20054;-83
2022/09/06 09:00:12;;;;;;;5.85;1.02;;;17.00;59.30;;;;;;4141051;28;20486;-84
2022/09/06 09:02:19;;;;;;;6.88;1.00;;;17.10;59.00;;;;;;4126564;28;20506;-84
2022/09/06 09:04:23;;;;;;;4.97;0.98;;;17.10;58.90;;;;;;4124680;28;20023;-84
2022/09/06 09:06:25;;;;;;;5.00;1.20;;;17.20;59.00;;;;;;4125216;28;20019;-83
2022/09/06 09:08:47;;;;;;;7.88;0.75;;;17.20;58.70;;;;;;4122935;28;20298;-84
2022/09/06 09:10:56;;;;;;;4.05;1.17;;;17.30;58.30;;;;;;4122171;28;20034;-84
2022/09/06 09:13:01;;;;;;;10.25;1.40;;;17.30;58.20;;;;;;4126704;28;20027;-84
2022/09/06 09:15:08;;;;;;;12.40;1.35;;;17.40;58.10;;;;;;4126573;28;20022;-84
2022/09/06 09:17:21;;;;;;;4.18;1.00;;;17.40;58.00;;;;;;4128520;28;20057;-84
2022/09/06 09:19:21;;;;;;;8.32;1.20;;;17.40;58.10;;;;;;4125238;28;20121;-84
2022/09/06 09:21:23;;;;;;;5.50;1.08;;;17.40;57.80;;;;;;4127512;28;20386;-83
2022/09/06 09:23:24;;;;;;;15.45;0.95;;;17.50;57.80;;;;;;4122269;28;20488;-84
2022/09/06 09:25:33;;;;;;;6.28;1.25;;;17.50;57.50;;;;;;4135216;28;20033;-84
2022/09/06 09:27:35;;;;;;;2.22;0.88;;;17.50;57.40;;;;;;4121864;28;20053;-84
2022/09/06 09:29:54;;;;;;;10.73;1.10;;;17.50;57.40;;;;;;4119876;28;20794;-83
2022/09/06 09:31:55;;;;;;;10.68;1.48;;;17.60;57.10;;;;;;4128800;28;20457;-84
2022/09/06 09:33:56;;;;;;;3.67;1.23;;;17.60;57.00;;;;;;4123283;28;20037;-84
2022/09/06 09:36:12;;;;;;;4.93;1.13;;;17.60;56.50;;;;;;4136782;28;20030;-84
2022/09/06 09:38:20;;;;;;;7.00;0.88;;;17.70;56.80;;;;;;4120627;28;20031;-84
2022/09/06 09:40:24;;;;;;;8.88;1.20;;;17.80;56.80;;;;;;4136987;28;20117;-84
2022/09/06 09:42:29;;;;;;;8.18;0.90;;;17.70;55.90;;;;;;4125281;28;20037;-84
2022/09/06 09:44:29;;;;;;;4.80;0.90;;;17.60;56.10;;;;;;4123871;28;20034;-84
2022/09/06 09:46:35;;;;;;;6.22;1.13;;;17.70;56.50;;;;;;4123412;28;20041;-84
2022/09/06 09:48:36;;;;;;;11.20;1.20;;;17.70;56.70;;;;;;4126372;28;20070;-84
2022/09/06 09:50:36;;;;;;;11.48;1.00;;;17.70;56.60;;;;;;4129063;28;20026;-84
2022/09/06 09:52:43;;;;;;;6.82;1.05;;;17.70;56.30;;;;;;4119599;28;20029;-83
2022/09/06 09:54:45;;;;;;;4.10;0.80;;;17.70;56.10;;;;;;4121511;28;20431;-83
2022/09/06 09:56:51;;;;;;;4.45;0.63;;;17.70;55.80;;;;;;4120610;28;20513;-84
2022/09/06 09:58:54;;;;;;;5.32;1.08;;;17.70;55.90;;;;;;4139419;28;20033;-84
2022/09/06 10:01:14;;;;;;;5.75;0.95;;;17.70;55.70;;;;;;4114437;28;20074;-84
2022/09/06 10:03:26;;;;;;;4.55;0.88;;;17.70;56.30;;;;;;4123888;28;20431;-84
2022/09/06 10:05:27;;;;;;;5.07;1.20;;;17.60;56.70;;;;;;4138936;28;20034;-85
2022/09/06 10:07:29;;;;;;;5.63;1.02;;;17.70;57.00;;;;;;4123044;28;20114;-83
2022/09/06 10:09:35;;;;;;;5.78;1.05;;;17.70;56.90;;;;;;4126123;28;20098;-84
2022/09/06 10:11:47;;;;;;;5.00;1.00;;;17.70;56.80;;;;;;4122070;28;20107;-84
2022/09/06 10:14:08;;;;;;;8.90;1.38;;;17.80;56.80;;;;;;4123305;28;20077;-84
2022/09/06 10:16:09;;;;;;;2.30;0.68;;;17.80;56.60;;;;;;4122091;28;20490;-84
2022/09/06 10:18:14;;;;;;;3.47;1.10;;;17.80;56.50;;;;;;4126795;28;20023;-83
2022/09/06 10:20:16;;;;;;;7.32;1.00;;;17.80;56.50;;;;;;4129862;28;20041;-84
2022/09/06 10:22:29;;;;;;;3.42;0.90;;;17.70;55.90;;;;;;4123872;28;20081;-84
2022/09/06 10:24:58;;;;;;;3.95;1.17;;;17.80;56.30;;;;;;4121583;28;20046;-84
2022/09/06 10:27:03;;;;;;;2.53;0.95;;;17.80;56.40;;;;;;4127234;28;20030;-84
2022/09/06 10:29:08;;;;;;;5.10;1.35;;;17.80;56.20;;;;;;4123586;28;20038;-84
2022/09/06 10:31:27;;;;;;;4.07;1.20;;;17.80;56.30;;;;;;4122582;28;20077;-84
2022/09/06 10:33:45;;;;;;;6.15;1.08;;;17.80;55.70;;;;;;4123169;28;20026;-83
2022/09/06 10:35:46;;;;;;;3.90;1.00;;;17.90;55.90;;;;;;4137622;28;20025;-83
2022/09/06 10:38:14;;;;;;;5.32;0.88;;;17.90;55.90;;;;;;4125090;28;20082;-83
2022/09/06 10:40:44;;;;;;;4.30;1.00;;;17.90;55.00;;;;;;4142190;28;20029;-84
2022/09/06 10:42:53;;;;;;;3.22;0.82;;;18.00;55.50;;;;;;4114405;28;20113;-82
2022/09/06 10:44:56;;;;;;;2.72;1.00;;;18.00;55.60;;;;;;4127658;28;20511;-85